Toronto, Ohio
Current Conditions -  °F | °C
As of 4:53 PM on Monday 26 Jan 2015 (Local Time) from KHLG Reporting Station
Light Snow Light Snow  
Wind Chill: 13°   Ceiling: 1800
Heat Index: 24°   Visibility: 6mi
Dew Point: 19°   Wind: 12mph
Humidity: 81%   Direction: 320°NW
Pressure: 29.76"   Gusts: NA
Location:  40.46°N, 80.61°W
Report Text: KHLG 262153Z 32010KT 6SM -SN FEW011 OVC018 M04/M07 A2976 RMK AO2 SNE16B44 SLP094 P0001 T10441072
Loading
Personal Weather Stations






























Interactive Weather Map New forecast layout! Learn more

10-Day Weather Forecast

Advertisements
Track Severe Weather on mobile